Morrill, Kentucky
Current Conditions -  °F | °C
As of 11:55 PM on Friday 28 Nov 2014 (Local Time) from KI39 Reporting Station
Clear Clear  
Wind Chill: 29°   Ceiling: Unl
Heat Index: 37°   Visibility: 10mi
Dew Point: 19°   Wind: 13mph
Humidity: 48%   Direction: 200°SSW
Pressure: 30.1"   Gusts: NA
Location:  37.4446°N, 84.0227°W
Report Text: KI39 290455Z AUTO 20011KT 10SM CLR 03/M07 A3010 RMK AO2
Loading
Personal Weather Stations






























Interactive Weather Map New forecast layout! Learn more

10-Day Weather Forecast

Advertisements
Track Severe Weather on mobile